sensor_id;sensor_type;location;lat;lon;timestamp;temperature;humidity
26707;DHT22;14319;49.422;10.934;2022-11-20T00:00:20;2.30;96.60
26707;DHT22;14319;49.422;10.934;2022-11-20T00:02:21;2.30;97.40
26707;DHT22;14319;49.422;10.934;2022-11-20T00:04:21;2.20;93.40
26707;DHT22;14319;49.422;10.934;2022-11-20T00:06:22;2.10;94.30
26707;DHT22;14319;49.422;10.934;2022-11-20T00:08:23;2.30;94.10
26707;DHT22;14319;49.422;10.934;2022-11-20T00:10:23;2.00;90.80
26707;DHT22;14319;49.422;10.934;2022-11-20T00:12:24;1.80;90.80
26707;DHT22;14319;49.422;10.934;2022-11-20T00:14:24;1.90;93.90
26707;DHT22;14319;49.422;10.934;2022-11-20T00:16:25;2.00;93.20
26707;DHT22;14319;49.422;10.934;2022-11-20T00:18:26;2.10;93.80
26707;DHT22;14319;49.422;10.934;2022-11-20T00:20:27;2.30;96.20
26707;DHT22;14319;49.422;10.934;2022-11-20T00:22:27;2.20;92.10
26707;DHT22;14319;49.422;10.934;2022-11-20T00:24:28;2.10;94.10
26707;DHT22;14319;49.422;10.934;2022-11-20T00:26:28;2.20;94.80
26707;DHT22;14319;49.422;10.934;2022-11-20T00:28:29;2.10;93.10
26707;DHT22;14319;49.422;10.934;2022-11-20T00:30:29;2.20;95.10
26707;DHT22;14319;49.422;10.934;2022-11-20T00:32:30;2.30;96.70
26707;DHT22;14319;49.422;10.934;2022-11-20T00:34:30;2.30;94.50
26707;DHT22;14319;49.422;10.934;2022-11-20T00:36:32;2.10;91.50
26707;DHT22;14319;49.422;10.934;2022-11-20T00:38:33;2.30;94.90
26707;DHT22;14319;49.422;10.934;2022-11-20T00:40:34;2.30;96.00
26707;DHT22;14319;49.422;10.934;2022-11-20T00:42:34;2.30;95.30
26707;DHT22;14319;49.422;10.934;2022-11-20T00:44:35;2.40;96.80
26707;DHT22;14319;49.422;10.934;2022-11-20T00:46:35;2.40;95.30
26707;DHT22;14319;49.422;10.934;2022-11-20T00:48:36;2.50;97.00
26707;DHT22;14319;49.422;10.934;2022-11-20T00:50:37;2.60;98.10
26707;DHT22;14319;49.422;10.934;2022-11-20T00:52:37;2.70;98.20
26707;DHT22;14319;49.422;10.934;2022-11-20T00:54:38;2.70;96.90
26707;DHT22;14319;49.422;10.934;2022-11-20T00:56:38;2.60;94.60
26707;DHT22;14319;49.422;10.934;2022-11-20T00:58:40;2.60;93.80
26707;DHT22;14319;49.422;10.934;2022-11-20T01:00:42;2.50;93.50
26707;DHT22;14319;49.422;10.934;2022-11-20T01:02:42;2.50;95.80
26707;DHT22;14319;49.422;10.934;2022-11-20T01:04:43;2.60;96.30
26707;DHT22;14319;49.422;10.934;2022-11-20T01:06:43;2.50;94.00
26707;DHT22;14319;49.422;10.934;2022-11-20T01:08:44;2.40;94.20
26707;DHT22;14319;49.422;10.934;2022-11-20T01:10:44;2.50;97.60
26707;DHT22;14319;49.422;10.934;2022-11-20T01:12:45;2.50;96.00
26707;DHT22;14319;49.422;10.934;2022-11-20T01:15:05;2.40;93.70
26707;DHT22;14319;49.422;10.934;2022-11-20T01:17:06;2.40;93.10
26707;DHT22;14319;49.422;10.934;2022-11-20T01:19:07;2.30;92.40
26707;DHT22;14319;49.422;10.934;2022-11-20T01:21:13;2.30;94.30
26707;DHT22;14319;49.422;10.934;2022-11-20T01:23:14;2.40;96.40
26707;DHT22;14319;49.422;10.934;2022-11-20T01:25:15;2.60;97.50
26707;DHT22;14319;49.422;10.934;2022-11-20T01:27:15;2.60;97.40
26707;DHT22;14319;49.422;10.934;2022-11-20T01:29:20;2.80;95.80
26707;DHT22;14319;49.422;10.934;2022-11-20T01:31:25;2.80;94.30
26707;DHT22;14319;49.422;10.934;2022-11-20T01:33:26;2.80;95.30
26707;DHT22;14319;49.422;10.934;2022-11-20T01:35:27;2.70;94.50
26707;DHT22;14319;49.422;10.934;2022-11-20T01:37:27;2.70;95.00
26707;DHT22;14319;49.422;10.934;2022-11-20T01:39:28;2.70;95.80
26707;DHT22;14319;49.422;10.934;2022-11-20T01:41:29;2.70;96.40
26707;DHT22;14319;49.422;10.934;2022-11-20T01:43:49;2.80;96.00
26707;DHT22;14319;49.422;10.934;2022-11-20T01:47:56;2.90;95.60
26707;DHT22;14319;49.422;10.934;2022-11-20T01:50:30;2.90;95.40
26707;DHT22;14319;49.422;10.934;2022-11-20T01:52:25;2.90;95.30
26707;DHT22;14319;49.422;10.934;2022-11-20T01:54:31;3.00;95.50
26707;DHT22;14319;49.422;10.934;2022-11-20T01:56:39;3.00;94.30
26707;DHT22;14319;49.422;10.934;2022-11-20T01:58:42;3.00;94.30
26707;DHT22;14319;49.422;10.934;2022-11-20T02:00:44;3.00;93.50
26707;DHT22;14319;49.422;10.934;2022-11-20T02:02:55;3.00;94.10
26707;DHT22;14319;49.422;10.934;2022-11-20T02:04:58;3.00;93.80
26707;DHT22;14319;49.422;10.934;2022-11-20T02:07:01;3.00;94.00
26707;DHT22;14319;49.422;10.934;2022-11-20T02:09:02;3.00;95.10
26707;DHT22;14319;49.422;10.934;2022-11-20T02:11:03;3.00;94.10
26707;DHT22;14319;49.422;10.934;2022-11-20T02:13:04;3.00;96.00
26707;DHT22;14319;49.422;10.934;2022-11-20T02:15:23;3.00;96.00
26707;DHT22;14319;49.422;10.934;2022-11-20T02:17:24;3.00;95.80
26707;DHT22;14319;49.422;10.934;2022-11-20T02:19:28;3.10;95.00
26707;DHT22;14319;49.422;10.934;2022-11-20T02:25:31;3.10;93.90
26707;DHT22;14319;49.422;10.934;2022-11-20T02:27:32;3.10;95.10
26707;DHT22;14319;49.422;10.934;2022-11-20T02:29:40;3.10;94.20
26707;DHT22;14319;49.422;10.934;2022-11-20T02:31:42;3.10;93.50
26707;DHT22;14319;49.422;10.934;2022-11-20T02:33:43;3.10;92.00
26707;DHT22;14319;49.422;10.934;2022-11-20T02:35:45;3.00;94.00
26707;DHT22;14319;49.422;10.934;2022-11-20T02:37:47;3.00;93.70
26707;DHT22;14319;49.422;10.934;2022-11-20T02:39:49;3.00;94.10
26707;DHT22;14319;49.422;10.934;2022-11-20T02:41:50;3.00;93.60
26707;DHT22;14319;49.422;10.934;2022-11-20T02:43:52;3.00;93.80
26707;DHT22;14319;49.422;10.934;2022-11-20T02:45:52;3.00;93.90
26707;DHT22;14319;49.422;10.934;2022-11-20T02:47:53;3.10;94.70
26707;DHT22;14319;49.422;10.934;2022-11-20T02:49:53;3.00;94.40
26707;DHT22;14319;49.422;10.934;2022-11-20T02:51:54;3.00;94.30
26707;DHT22;14319;49.422;10.934;2022-11-20T02:53:54;3.00;94.60
26707;DHT22;14319;49.422;10.934;2022-11-20T02:55:55;3.10;95.10
26707;DHT22;14319;49.422;10.934;2022-11-20T02:57:55;3.10;93.90
26707;DHT22;14319;49.422;10.934;2022-11-20T02:59:56;3.10;94.00
26707;DHT22;14319;49.422;10.934;2022-11-20T03:01:56;3.10;94.20
26707;DHT22;14319;49.422;10.934;2022-11-20T03:03:57;3.10;93.70
26707;DHT22;14319;49.422;10.934;2022-11-20T03:06:00;3.10;94.10
26707;DHT22;14319;49.422;10.934;2022-11-20T03:08:01;3.10;93.30
26707;DHT22;14319;49.422;10.934;2022-11-20T03:10:02;3.10;92.60
26707;DHT22;14319;49.422;10.934;2022-11-20T03:12:02;3.10;93.00
26707;DHT22;14319;49.422;10.934;2022-11-20T03:14:03;3.10;93.40
26707;DHT22;14319;49.422;10.934;2022-11-20T03:16:08;3.10;94.30
26707;DHT22;14319;49.422;10.934;2022-11-20T03:18:09;3.10;93.50
26707;DHT22;14319;49.422;10.934;2022-11-20T03:20:10;3.10;93.40
26707;DHT22;14319;49.422;10.934;2022-11-20T03:22:10;3.10;94.00
26707;DHT22;14319;49.422;10.934;2022-11-20T03:24:11;3.10;92.20
26707;DHT22;14319;49.422;10.934;2022-11-20T03:26:13;3.10;92.30
26707;DHT22;14319;49.422;10.934;2022-11-20T03:28:14;3.10;92.20
26707;DHT22;14319;49.422;10.934;2022-11-20T03:30:15;3.00;93.10
26707;DHT22;14319;49.422;10.934;2022-11-20T03:32:15;2.90;92.50
26707;DHT22;14319;49.422;10.934;2022-11-20T03:34:16;2.90;92.60
26707;DHT22;14319;49.422;10.934;2022-11-20T03:36:17;3.00;91.70
26707;DHT22;14319;49.422;10.934;2022-11-20T03:38:18;2.80;90.70
26707;DHT22;14319;49.422;10.934;2022-11-20T03:40:18;2.60;92.60
26707;DHT22;14319;49.422;10.934;2022-11-20T03:42:19;2.80;92.80
26707;DHT22;14319;49.422;10.934;2022-11-20T03:44:38;2.80;94.20
26707;DHT22;14319;49.422;10.934;2022-11-20T03:46:38;2.90;91.70
26707;DHT22;14319;49.422;10.934;2022-11-20T03:48:39;2.90;92.10
26707;DHT22;14319;49.422;10.934;2022-11-20T03:50:39;2.90;94.10
26707;DHT22;14319;49.422;10.934;2022-11-20T03:52:40;3.00;94.70
26707;DHT22;14319;49.422;10.934;2022-11-20T03:54:41;3.00;95.20
26707;DHT22;14319;49.422;10.934;2022-11-20T03:56:41;3.00;94.80
26707;DHT22;14319;49.422;10.934;2022-11-20T03:58:42;2.80;92.20
26707;DHT22;14319;49.422;10.934;2022-11-20T04:00:42;2.70;94.30
26707;DHT22;14319;49.422;10.934;2022-11-20T04:02:43;2.80;95.80
26707;DHT22;14319;49.422;10.934;2022-11-20T04:04:43;2.90;94.30
26707;DHT22;14319;49.422;10.934;2022-11-20T04:06:44;2.80;94.00
26707;DHT22;14319;49.422;10.934;2022-11-20T04:08:45;2.90;93.80
26707;DHT22;14319;49.422;10.934;2022-11-20T04:10:45;2.80;93.80
26707;DHT22;14319;49.422;10.934;2022-11-20T04:12:46;2.80;93.20
26707;DHT22;14319;49.422;10.934;2022-11-20T04:14:46;2.90;92.30
26707;DHT22;14319;49.422;10.934;2022-11-20T04:16:47;3.00;92.20
26707;DHT22;14319;49.422;10.934;2022-11-20T04:18:51;3.00;92.70
26707;DHT22;14319;49.422;10.934;2022-11-20T04:20:51;2.80;92.00
26707;DHT22;14319;49.422;10.934;2022-11-20T04:22:55;2.90;95.60
26707;DHT22;14319;49.422;10.934;2022-11-20T04:24:55;2.90;94.40
26707;DHT22;14319;49.422;10.934;2022-11-20T04:26:56;3.00;93.90
26707;DHT22;14319;49.422;10.934;2022-11-20T04:28:56;3.10;94.80
26707;DHT22;14319;49.422;10.934;2022-11-20T04:33:04;3.10;95.10
26707;DHT22;14319;49.422;10.934;2022-11-20T04:35:04;3.10;94.60
26707;DHT22;14319;49.422;10.934;2022-11-20T04:37:05;3.20;96.00
26707;DHT22;14319;49.422;10.934;2022-11-20T04:39:06;3.20;94.10
26707;DHT22;14319;49.422;10.934;2022-11-20T04:41:07;3.20;94.10
26707;DHT22;14319;49.422;10.934;2022-11-20T04:43:08;3.10;93.60
26707;DHT22;14319;49.422;10.934;2022-11-20T04:45:09;3.10;93.20
26707;DHT22;14319;49.422;10.934;2022-11-20T04:47:09;3.10;95.40
26707;DHT22;14319;49.422;10.934;2022-11-20T04:49:10;3.10;94.10
26707;DHT22;14319;49.422;10.934;2022-11-20T04:51:11;3.20;94.00
26707;DHT22;14319;49.422;10.934;2022-11-20T04:53:11;3.10;94.30
26707;DHT22;14319;49.422;10.934;2022-11-20T04:55:12;3.20;95.30
26707;DHT22;14319;49.422;10.934;2022-11-20T04:57:12;3.20;95.10
26707;DHT22;14319;49.422;10.934;2022-11-20T04:59:13;3.30;94.20
26707;DHT22;14319;49.422;10.934;2022-11-20T05:01:20;3.20;93.90
26707;DHT22;14319;49.422;10.934;2022-11-20T05:03:21;3.20;92.10
26707;DHT22;14319;49.422;10.934;2022-11-20T05:05:22;3.00;90.80
26707;DHT22;14319;49.422;10.934;2022-11-20T05:07:22;3.00;93.30
26707;DHT22;14319;49.422;10.934;2022-11-20T05:09:23;3.10;93.60
26707;DHT22;14319;49.422;10.934;2022-11-20T05:11:23;2.90;92.90
26707;DHT22;14319;49.422;10.934;2022-11-20T05:13:24;2.90;94.40
26707;DHT22;14319;49.422;10.934;2022-11-20T05:15:25;3.00;94.60
26707;DHT22;14319;49.422;10.934;2022-11-20T05:17:25;3.00;94.10
26707;DHT22;14319;49.422;10.934;2022-11-20T05:19:26;3.10;94.50
26707;DHT22;14319;49.422;10.934;2022-11-20T05:21:26;3.10;92.90
26707;DHT22;14319;49.422;10.934;2022-11-20T05:23:28;3.10;94.50
26707;DHT22;14319;49.422;10.934;2022-11-20T05:25:29;3.20;93.80
26707;DHT22;14319;49.422;10.934;2022-11-20T05:27:29;3.20;94.00
26707;DHT22;14319;49.422;10.934;2022-11-20T05:29:30;3.10;93.00
26707;DHT22;14319;49.422;10.934;2022-11-20T05:31:30;3.10;93.50
26707;DHT22;14319;49.422;10.934;2022-11-20T05:33:31;3.20;96.00
26707;DHT22;14319;49.422;10.934;2022-11-20T05:35:32;3.20;95.80
26707;DHT22;14319;49.422;10.934;2022-11-20T05:37:33;3.20;93.60
26707;DHT22;14319;49.422;10.934;2022-11-20T05:39:33;3.20;93.10
26707;DHT22;14319;49.422;10.934;2022-11-20T05:41:34;3.20;93.90
26707;DHT22;14319;49.422;10.934;2022-11-20T05:43:35;3.20;93.60
26707;DHT22;14319;49.422;10.934;2022-11-20T05:45:35;3.20;93.40
26707;DHT22;14319;49.422;10.934;2022-11-20T05:47:36;3.30;93.10
26707;DHT22;14319;49.422;10.934;2022-11-20T05:49:37;3.20;92.60
26707;DHT22;14319;49.422;10.934;2022-11-20T05:51:37;3.20;92.30
26707;DHT22;14319;49.422;10.934;2022-11-20T05:53:38;3.10;92.40
26707;DHT22;14319;49.422;10.934;2022-11-20T05:55:38;3.00;93.30
26707;DHT22;14319;49.422;10.934;2022-11-20T05:57:39;3.00;94.00
26707;DHT22;14319;49.422;10.934;2022-11-20T05:59:39;3.10;93.90
26707;DHT22;14319;49.422;10.934;2022-11-20T06:01:40;3.20;94.00
26707;DHT22;14319;49.422;10.934;2022-11-20T06:03:41;3.20;94.30
26707;DHT22;14319;49.422;10.934;2022-11-20T06:05:42;3.20;94.80
26707;DHT22;14319;49.422;10.934;2022-11-20T06:07:43;3.30;94.30
26707;DHT22;14319;49.422;10.934;2022-11-20T06:09:43;3.30;93.10
26707;DHT22;14319;49.422;10.934;2022-11-20T06:11:44;3.30;93.90
26707;DHT22;14319;49.422;10.934;2022-11-20T06:13:44;3.20;93.60
26707;DHT22;14319;49.422;10.934;2022-11-20T06:15:51;3.10;90.40
26707;DHT22;14319;49.422;10.934;2022-11-20T06:17:53;3.00;91.20
26707;DHT22;14319;49.422;10.934;2022-11-20T06:19:54;2.90;90.50
26707;DHT22;14319;49.422;10.934;2022-11-20T06:21:54;3.00;93.10
26707;DHT22;14319;49.422;10.934;2022-11-20T06:23:55;3.10;92.00
26707;DHT22;14319;49.422;10.934;2022-11-20T06:25:55;3.10;92.70
26707;DHT22;14319;49.422;10.934;2022-11-20T06:27:56;3.00;92.40
26707;DHT22;14319;49.422;10.934;2022-11-20T06:29:56;3.00;91.80
26707;DHT22;14319;49.422;10.934;2022-11-20T06:31:57;3.00;93.70
26707;DHT22;14319;49.422;10.934;2022-11-20T06:33:57;3.00;93.80
26707;DHT22;14319;49.422;10.934;2022-11-20T06:35:58;3.10;91.70
26707;DHT22;14319;49.422;10.934;2022-11-20T06:37:59;3.10;91.20
26707;DHT22;14319;49.422;10.934;2022-11-20T06:40:00;2.90;91.50
26707;DHT22;14319;49.422;10.934;2022-11-20T06:42:00;2.90;91.30
26707;DHT22;14319;49.422;10.934;2022-11-20T06:44:01;3.00;91.40
26707;DHT22;14319;49.422;10.934;2022-11-20T06:46:01;3.10;93.20
26707;DHT22;14319;49.422;10.934;2022-11-20T06:48:02;3.10;93.10
26707;DHT22;14319;49.422;10.934;2022-11-20T06:50:03;3.10;92.80
26707;DHT22;14319;49.422;10.934;2022-11-20T06:52:04;3.00;91.70
26707;DHT22;14319;49.422;10.934;2022-11-20T06:54:04;2.90;92.00
26707;DHT22;14319;49.422;10.934;2022-11-20T06:56:05;2.80;91.90
26707;DHT22;14319;49.422;10.934;2022-11-20T06:58:06;2.80;91.90
26707;DHT22;14319;49.422;10.934;2022-11-20T07:00:07;2.90;92.70
26707;DHT22;14319;49.422;10.934;2022-11-20T07:02:09;2.90;92.80
26707;DHT22;14319;49.422;10.934;2022-11-20T07:04:10;2.90;90.30
26707;DHT22;14319;49.422;10.934;2022-11-20T07:06:10;2.90;92.40
26707;DHT22;14319;49.422;10.934;2022-11-20T07:08:11;3.00;94.00
26707;DHT22;14319;49.422;10.934;2022-11-20T07:10:12;3.10;94.70
26707;DHT22;14319;49.422;10.934;2022-11-20T07:12:12;3.00;93.10
26707;DHT22;14319;49.422;10.934;2022-11-20T07:14:13;3.10;94.60
26707;DHT22;14319;49.422;10.934;2022-11-20T07:16:13;3.00;93.10
26707;DHT22;14319;49.422;10.934;2022-11-20T07:18:14;2.90;93.50
26707;DHT22;14319;49.422;10.934;2022-11-20T07:20:14;3.00;94.90
26707;DHT22;14319;49.422;10.934;2022-11-20T07:22:15;3.00;94.10
26707;DHT22;14319;49.422;10.934;2022-11-20T07:24:15;3.10;95.90
26707;DHT22;14319;49.422;10.934;2022-11-20T07:26:16;3.10;94.10
26707;DHT22;14319;49.422;10.934;2022-11-20T07:28:16;3.10;95.00
26707;DHT22;14319;49.422;10.934;2022-11-20T07:30:17;3.20;95.30
26707;DHT22;14319;49.422;10.934;2022-11-20T07:32:17;3.30;95.60
26707;DHT22;14319;49.422;10.934;2022-11-20T07:34:18;3.30;95.80
26707;DHT22;14319;49.422;10.934;2022-11-20T07:36:20;3.30;94.20
26707;DHT22;14319;49.422;10.934;2022-11-20T07:38:20;3.30;94.70
26707;DHT22;14319;49.422;10.934;2022-11-20T07:40:21;3.40;94.10
26707;DHT22;14319;49.422;10.934;2022-11-20T07:42:21;3.40;93.60
26707;DHT22;14319;49.422;10.934;2022-11-20T07:44:25;3.30;93.50
26707;DHT22;14319;49.422;10.934;2022-11-20T07:46:25;3.20;92.30
26707;DHT22;14319;49.422;10.934;2022-11-20T07:48:26;3.20;92.00
26707;DHT22;14319;49.422;10.934;2022-11-20T07:50:26;3.20;94.30
26707;DHT22;14319;49.422;10.934;2022-11-20T07:52:27;3.30;95.30
26707;DHT22;14319;49.422;10.934;2022-11-20T07:54:28;3.30;94.50
26707;DHT22;14319;49.422;10.934;2022-11-20T07:56:29;3.40;95.50
26707;DHT22;14319;49.422;10.934;2022-11-20T07:58:30;3.50;96.00
26707;DHT22;14319;49.422;10.934;2022-11-20T08:00:30;3.50;92.80
26707;DHT22;14319;49.422;10.934;2022-11-20T08:02:31;3.50;91.90
26707;DHT22;14319;49.422;10.934;2022-11-20T08:04:31;3.60;92.00
26707;DHT22;14319;49.422;10.934;2022-11-20T08:06:32;3.60;92.10
26707;DHT22;14319;49.422;10.934;2022-11-20T08:08:33;3.70;92.60
26707;DHT22;14319;49.422;10.934;2022-11-20T08:10:33;3.70;91.30
26707;DHT22;14319;49.422;10.934;2022-11-20T08:12:34;3.70;91.70
26707;DHT22;14319;49.422;10.934;2022-11-20T08:14:53;3.70;93.60
26707;DHT22;14319;49.422;10.934;2022-11-20T08:16:55;3.70;91.90
26707;DHT22;14319;49.422;10.934;2022-11-20T08:18:56;3.70;92.40
26707;DHT22;14319;49.422;10.934;2022-11-20T08:20:56;3.70;92.50
26707;DHT22;14319;49.422;10.934;2022-11-20T08:22:57;3.70;92.50
26707;DHT22;14319;49.422;10.934;2022-11-20T08:24:58;3.60;92.10
26707;DHT22;14319;49.422;10.934;2022-11-20T08:26:59;3.70;94.80
26707;DHT22;14319;49.422;10.934;2022-11-20T08:29:00;3.80;94.40
26707;DHT22;14319;49.422;10.934;2022-11-20T08:31:01;3.90;94.00
26707;DHT22;14319;49.422;10.934;2022-11-20T08:33:02;4.00;93.60
26707;DHT22;14319;49.422;10.934;2022-11-20T08:35:03;4.00;92.10
26707;DHT22;14319;49.422;10.934;2022-11-20T08:37:04;4.10;94.30
26707;DHT22;14319;49.422;10.934;2022-11-20T08:39:04;4.10;93.00
26707;DHT22;14319;49.422;10.934;2022-11-20T08:41:05;4.20;94.30
26707;DHT22;14319;49.422;10.934;2022-11-20T08:43:23;4.20;93.30
26707;DHT22;14319;49.422;10.934;2022-11-20T08:45:24;4.20;92.60
26707;DHT22;14319;49.422;10.934;2022-11-20T08:47:24;4.10;92.70
26707;DHT22;14319;49.422;10.934;2022-11-20T08:49:25;4.10;93.50
26707;DHT22;14319;49.422;10.934;2022-11-20T08:51:25;4.20;93.40
26707;DHT22;14319;49.422;10.934;2022-11-20T08:53:26;4.20;93.30
26707;DHT22;14319;49.422;10.934;2022-11-20T08:55:27;4.20;93.50
26707;DHT22;14319;49.422;10.934;2022-11-20T08:57:28;4.20;92.60
26707;DHT22;14319;49.422;10.934;2022-11-20T08:59:28;4.20;93.30
26707;DHT22;14319;49.422;10.934;2022-11-20T09:01:29;4.20;93.20
26707;DHT22;14319;49.422;10.934;2022-11-20T09:03:29;4.20;92.80
26707;DHT22;14319;49.422;10.934;2022-11-20T09:05:30;4.20;93.50
26707;DHT22;14319;49.422;10.934;2022-11-20T09:07:31;4.30;93.80
26707;DHT22;14319;49.422;10.934;2022-11-20T09:09:31;4.30;93.40
26707;DHT22;14319;49.422;10.934;2022-11-20T09:11:33;4.40;92.90
26707;DHT22;14319;49.422;10.934;2022-11-20T09:13:34;4.40;93.00
26707;DHT22;14319;49.422;10.934;2022-11-20T09:15:35;4.40;93.10
26707;DHT22;14319;49.422;10.934;2022-11-20T09:17:36;4.30;92.30
26707;DHT22;14319;49.422;10.934;2022-11-20T09:19:36;4.20;93.10
26707;DHT22;14319;49.422;10.934;2022-11-20T09:21:37;4.30;92.30
26707;DHT22;14319;49.422;10.934;2022-11-20T09:23:38;4.30;93.30
26707;DHT22;14319;49.422;10.934;2022-11-20T09:25:38;4.40;94.40
26707;DHT22;14319;49.422;10.934;2022-11-20T09:27:39;4.40;92.70
26707;DHT22;14319;49.422;10.934;2022-11-20T09:29:41;4.40;92.10
26707;DHT22;14319;49.422;10.934;2022-11-20T09:31:42;4.40;93.10
26707;DHT22;14319;49.422;10.934;2022-11-20T09:33:42;4.50;92.40
26707;DHT22;14319;49.422;10.934;2022-11-20T09:35:43;4.70;93.20
26707;DHT22;14319;49.422;10.934;2022-11-20T09:37:44;4.80;92.90
26707;DHT22;14319;49.422;10.934;2022-11-20T09:39:45;4.80;92.90
26707;DHT22;14319;49.422;10.934;2022-11-20T09:41:56;4.80;93.30
26707;DHT22;14319;49.422;10.934;2022-11-20T09:44:23;4.80;91.20
26707;DHT22;14319;49.422;10.934;2022-11-20T09:46:44;4.60;90.10
26707;DHT22;14319;49.422;10.934;2022-11-20T09:53:12;4.50;91.40
26707;DHT22;14319;49.422;10.934;2022-11-20T09:55:13;4.50;90.10
26707;DHT22;14319;49.422;10.934;2022-11-20T09:57:15;4.40;90.40
26707;DHT22;14319;49.422;10.934;2022-11-20T09:59:40;4.40;91.90
26707;DHT22;14319;49.422;10.934;2022-11-20T10:01:39;4.60;91.80
26707;DHT22;14319;49.422;10.934;2022-11-20T10:05:59;4.60;91.10
26707;DHT22;14319;49.422;10.934;2022-11-20T10:08:20;4.70;90.00
26707;DHT22;14319;49.422;10.934;2022-11-20T10:10:35;4.70;89.90
26707;DHT22;14319;49.422;10.934;2022-11-20T10:12:43;4.60;90.30
26707;DHT22;14319;49.422;10.934;2022-11-20T10:14:52;4.50;90.70
26707;DHT22;14319;49.422;10.934;2022-11-20T10:25:15;4.60;91.90
26707;DHT22;14319;49.422;10.934;2022-11-20T10:29:34;4.70;92.50
26707;DHT22;14319;49.422;10.934;2022-11-20T10:31:35;4.70;92.90
26707;DHT22;14319;49.422;10.934;2022-11-20T10:33:38;4.70;91.80
26707;DHT22;14319;49.422;10.934;2022-11-20T10:37:44;4.70;92.50
26707;DHT22;14319;49.422;10.934;2022-11-20T10:41:50;4.80;92.80
26707;DHT22;14319;49.422;10.934;2022-11-20T10:44:03;4.90;93.90
26707;DHT22;14319;49.422;10.934;2022-11-20T10:50:09;4.50;91.10
26707;DHT22;14319;49.422;10.934;2022-11-20T11:00:49;4.50;92.40
26707;DHT22;14319;49.422;10.934;2022-11-20T11:04:51;4.70;93.30
26707;DHT22;14319;49.422;10.934;2022-11-20T11:06:52;4.70;94.70
26707;DHT22;14319;49.422;10.934;2022-11-20T11:08:55;4.80;93.80
26707;DHT22;14319;49.422;10.934;2022-11-20T11:10:59;4.60;94.30
26707;DHT22;14319;49.422;10.934;2022-11-20T11:13:01;4.80;97.30
26707;DHT22;14319;49.422;10.934;2022-11-20T11:15:02;5.00;97.30
26707;DHT22;14319;49.422;10.934;2022-11-20T11:17:02;4.80;93.70
26707;DHT22;14319;49.422;10.934;2022-11-20T11:19:07;4.70;94.70
26707;DHT22;14319;49.422;10.934;2022-11-20T11:21:10;4.80;97.90
26707;DHT22;14319;49.422;10.934;2022-11-20T11:23:22;5.00;93.20
26707;DHT22;14319;49.422;10.934;2022-11-20T11:25:29;3.10;99.90
26707;DHT22;14319;49.422;10.934;2022-11-20T11:27:30;2.40;99.90
26707;DHT22;14319;49.422;10.934;2022-11-20T11:29:31;2.50;99.90
26707;DHT22;14319;49.422;10.934;2022-11-20T11:31:32;2.50;99.90
26707;DHT22;14319;49.422;10.934;2022-11-20T11:33:33;2.70;99.90
26707;DHT22;14319;49.422;10.934;2022-11-20T11:35:38;2.90;99.90
26707;DHT22;14319;49.422;10.934;2022-11-20T11:37:43;2.90;99.90
26707;DHT22;14319;49.422;10.934;2022-11-20T11:39:45;2.90;99.90
26707;DHT22;14319;49.422;10.934;2022-11-20T11:41:46;3.00;99.90
26707;DHT22;14319;49.422;10.934;2022-11-20T11:43:53;3.10;99.90
26707;DHT22;14319;49.422;10.934;2022-11-20T11:48:20;3.10;99.90
26707;DHT22;14319;49.422;10.934;2022-11-20T11:50:21;3.10;99.90
26707;DHT22;14319;49.422;10.934;2022-11-20T11:52:22;3.10;99.90
26707;DHT22;14319;49.422;10.934;2022-11-20T11:54:25;3.20;99.90
26707;DHT22;14319;49.422;10.934;2022-11-20T11:56:27;3.40;99.90
26707;DHT22;14319;49.422;10.934;2022-11-20T12:00:39;3.70;99.90
26707;DHT22;14319;49.422;10.934;2022-11-20T12:04:52;3.70;99.90
26707;DHT22;14319;49.422;10.934;2022-11-20T12:06:58;3.80;99.90
26707;DHT22;14319;49.422;10.934;2022-11-20T12:09:04;3.90;99.90
26707;DHT22;14319;49.422;10.934;2022-11-20T12:11:11;3.90;99.90
26707;DHT22;14319;49.422;10.934;2022-11-20T12:15:16;4.00;99.90
26707;DHT22;14319;49.422;10.934;2022-11-20T12:17:20;4.00;99.90
26707;DHT22;14319;49.422;10.934;2022-11-20T12:19:21;3.80;99.90
26707;DHT22;14319;49.422;10.934;2022-11-20T12:23:25;3.70;99.90
26707;DHT22;14319;49.422;10.934;2022-11-20T12:25:32;3.60;99.90
26707;DHT22;14319;49.422;10.934;2022-11-20T12:29:56;4.00;99.90
26707;DHT22;14319;49.422;10.934;2022-11-20T12:34:02;4.20;99.90
26707;DHT22;14319;49.422;10.934;2022-11-20T12:36:13;4.20;99.90
26707;DHT22;14319;49.422;10.934;2022-11-20T12:42:40;4.20;99.90
26707;DHT22;14319;49.422;10.934;2022-11-20T12:49:22;4.10;99.90
26707;DHT22;14319;49.422;10.934;2022-11-20T12:53:49;4.00;99.90
26707;DHT22;14319;49.422;10.934;2022-11-20T13:02:09;4.00;99.90
26707;DHT22;14319;49.422;10.934;2022-11-20T13:04:16;4.10;99.90
26707;DHT22;14319;49.422;10.934;2022-11-20T13:06:18;4.10;99.90
26707;DHT22;14319;49.422;10.934;2022-11-20T13:08:20;4.10;99.90
26707;DHT22;14319;49.422;10.934;2022-11-20T13:10:33;4.10;99.90
26707;DHT22;14319;49.422;10.934;2022-11-20T13:12:36;4.00;99.90
26707;DHT22;14319;49.422;10.934;2022-11-20T13:16:54;4.10;99.90
26707;DHT22;14319;49.422;10.934;2022-11-20T13:19:00;4.00;99.90
26707;DHT22;14319;49.422;10.934;2022-11-20T13:21:01;4.00;99.90
26707;DHT22;14319;49.422;10.934;2022-11-20T13:23:02;4.00;99.90
26707;DHT22;14319;49.422;10.934;2022-11-20T13:25:02;4.10;99.90
26707;DHT22;14319;49.422;10.934;2022-11-20T13:29:18;4.10;99.90
26707;DHT22;14319;49.422;10.934;2022-11-20T13:31:29;4.10;99.90
26707;DHT22;14319;49.422;10.934;2022-11-20T13:33:34;4.00;99.90
26707;DHT22;14319;49.422;10.934;2022-11-20T13:35:36;4.10;99.90
26707;DHT22;14319;49.422;10.934;2022-11-20T13:37:37;4.00;99.90
26707;DHT22;14319;49.422;10.934;2022-11-20T13:39:38;4.10;99.90
26707;DHT22;14319;49.422;10.934;2022-11-20T13:41:38;4.20;99.90
26707;DHT22;14319;49.422;10.934;2022-11-20T13:43:40;4.20;99.90
26707;DHT22;14319;49.422;10.934;2022-11-20T13:45:41;4.00;99.90
26707;DHT22;14319;49.422;10.934;2022-11-20T13:47:47;4.00;99.90
26707;DHT22;14319;49.422;10.934;2022-11-20T13:49:48;4.00;99.90
26707;DHT22;14319;49.422;10.934;2022-11-20T13:51:49;3.90;99.90
26707;DHT22;14319;49.422;10.934;2022-11-20T13:55:54;3.80;99.90
26707;DHT22;14319;49.422;10.934;2022-11-20T14:00:11;3.80;99.90
26707;DHT22;14319;49.422;10.934;2022-11-20T14:02:13;3.90;99.90
26707;DHT22;14319;49.422;10.934;2022-11-20T14:04:15;3.90;99.90
26707;DHT22;14319;49.422;10.934;2022-11-20T14:08:27;3.90;99.90
26707;DHT22;14319;49.422;10.934;2022-11-20T14:10:28;3.80;99.90
26707;DHT22;14319;49.422;10.934;2022-11-20T14:12:30;3.80;99.90
26707;DHT22;14319;49.422;10.934;2022-11-20T14:14:32;3.80;99.90
26707;DHT22;14319;49.422;10.934;2022-11-20T14:16:34;4.00;99.90
26707;DHT22;14319;49.422;10.934;2022-11-20T14:18:35;4.00;99.90